createdAt,value
2019-02-02T00:00:42.323Z,-77
2019-02-02T00:03:14.666Z,-75
2019-02-02T00:05:46.807Z,-77
2019-02-02T00:08:17.675Z,-77
2019-02-02T00:10:48.646Z,-77
2019-02-02T00:13:20.817Z,-76
2019-02-02T00:15:53.276Z,-77
2019-02-02T00:18:25.831Z,-77
2019-02-02T00:20:57.815Z,-77
2019-02-02T00:23:29.842Z,-77
2019-02-02T00:26:02.323Z,-77
2019-02-02T00:28:34.338Z,-78
2019-02-02T00:31:06.531Z,-76
2019-02-02T00:33:38.777Z,-78
2019-02-02T00:36:09.646Z,-76
2019-02-02T00:38:41.846Z,-76
2019-02-02T00:41:14.789Z,-76
2019-02-02T00:43:45.680Z,-76
2019-02-02T00:46:16.658Z,-76
2019-02-02T00:48:48.883Z,-76
2019-02-02T00:51:20.760Z,-76
2019-02-02T00:53:52.822Z,-76
2019-02-02T00:56:24.852Z,-76
2019-02-02T00:58:57.264Z,-76
2019-02-02T01:01:29.708Z,-76
2019-02-02T01:04:00.673Z,-76
2019-02-02T01:06:32.820Z,-76
2019-02-02T01:09:09.362Z,-76
2019-02-02T01:11:41.327Z,-76
2019-02-02T01:14:13.443Z,-76
2019-02-02T01:16:45.665Z,-76
2019-02-02T01:19:17.774Z,-76
2019-02-02T01:21:49.807Z,-76
2019-02-02T01:24:21.842Z,-76
2019-02-02T01:26:53.848Z,-76
2019-02-02T01:29:25.814Z,-76
2019-02-02T01:31:57.794Z,-76
2019-02-02T01:34:29.792Z,-76
2019-02-02T01:37:01.775Z,-76
2019-02-02T01:39:34.376Z,-76
2019-02-02T01:42:06.811Z,-77
2019-02-02T01:44:38.850Z,-76
2019-02-02T01:47:10.811Z,-76
2019-02-02T01:49:43.816Z,-76
2019-02-02T01:52:16.312Z,-76
2019-02-02T01:54:48.792Z,-76
2019-02-02T01:57:20.850Z,-76
2019-02-02T01:59:52.864Z,-76
2019-02-02T02:02:24.796Z,-76
2019-02-02T02:04:56.826Z,-75
2019-02-02T02:07:28.824Z,-76
2019-02-02T02:10:00.835Z,-75
2019-02-02T02:12:33.047Z,-75
2019-02-02T02:15:04.992Z,-76
2019-02-02T02:17:36.780Z,-76
2019-02-02T02:20:09.827Z,-76
2019-02-02T02:22:41.817Z,-76
2019-02-02T02:25:17.812Z,-75
2019-02-02T02:27:50.315Z,-76
2019-02-02T02:30:24.732Z,-75
2019-02-02T02:32:55.658Z,-76
2019-02-02T02:35:27.798Z,-76
2019-02-02T02:37:59.832Z,-75
2019-02-02T02:40:31.779Z,-75
2019-02-02T02:43:03.793Z,-76
2019-02-02T02:45:35.835Z,-76
2019-02-02T02:48:07.854Z,-76
2019-02-02T02:50:39.832Z,-76
2019-02-02T02:53:12.324Z,-76
2019-02-02T02:55:44.818Z,-76
2019-02-02T02:58:16.818Z,-76
2019-02-02T03:00:48.810Z,-76
2019-02-02T03:03:20.804Z,-76
2019-02-02T03:05:52.822Z,-76
2019-02-02T03:08:24.828Z,-76
2019-02-02T03:10:56.842Z,-76
2019-02-02T03:13:28.842Z,-76
2019-02-02T03:16:01.112Z,-76
2019-02-02T03:18:33.324Z,-75
2019-02-02T03:21:05.407Z,-76
2019-02-02T03:23:37.786Z,-75
2019-02-02T03:26:08.657Z,-76
2019-02-02T03:28:52.793Z,-76
2019-02-02T03:31:14.844Z,-76
2019-02-02T03:33:46.818Z,-76
2019-02-02T03:36:18.849Z,-76
2019-02-02T03:38:51.800Z,-76
2019-02-02T03:41:22.677Z,-75
2019-02-02T03:43:53.633Z,-76
2019-02-02T03:46:25.848Z,-76
2019-02-02T03:48:57.799Z,-76
2019-02-02T03:51:28.661Z,-75
2019-02-02T03:54:08.370Z,-75
2019-02-02T03:56:34.827Z,-75
2019-02-02T03:59:07.242Z,-75
2019-02-02T04:01:39.416Z,-76
2019-02-02T04:04:11.802Z,-76
2019-02-02T04:06:43.822Z,-75
2019-02-02T04:09:15.784Z,-75
2019-02-02T04:11:47.817Z,-76
2019-02-02T04:14:19.826Z,-76
2019-02-02T04:16:51.813Z,-76
2019-02-02T04:19:24.319Z,-75
2019-02-02T04:21:56.368Z,-76
2019-02-02T04:24:28.999Z,-75
2019-02-02T04:27:01.454Z,-75
2019-02-02T04:29:33.491Z,-75
2019-02-02T04:32:05.848Z,-75
2019-02-02T04:34:37.854Z,-76
2019-02-02T04:37:09.804Z,-76
2019-02-02T04:39:41.811Z,-75
2019-02-02T04:42:13.821Z,-76
2019-02-02T04:44:46.315Z,-76
2019-02-02T04:47:18.867Z,-76
2019-02-02T04:49:50.819Z,-75
2019-02-02T04:52:21.706Z,-75
2019-02-02T04:54:53.516Z,-75
2019-02-02T04:57:26.365Z,-76
2019-02-02T04:59:58.808Z,-76
2019-02-02T05:02:30.830Z,-75
2019-02-02T05:05:02.859Z,-75
2019-02-02T05:07:35.331Z,-76
2019-02-02T05:10:08.309Z,-75
2019-02-02T05:12:43.775Z,-75
2019-02-02T05:15:14.691Z,-76
2019-02-02T05:17:46.856Z,-75
2019-02-02T05:20:18.854Z,-75
2019-02-02T05:22:51.325Z,-75
2019-02-02T05:25:23.539Z,-75
2019-02-02T05:27:55.837Z,-75
2019-02-02T05:30:31.649Z,-76
2019-02-02T05:33:04.318Z,-76
2019-02-02T05:35:36.776Z,-75
2019-02-02T05:38:07.663Z,-76
2019-02-02T05:40:39.803Z,-76
2019-02-02T05:43:11.771Z,-75
2019-02-02T05:45:43.810Z,-74
2019-02-02T05:48:15.911Z,-75
2019-02-02T05:50:47.954Z,-75
2019-02-02T05:53:19.808Z,-77
2019-02-02T05:55:51.796Z,-76
2019-02-02T05:58:22.675Z,-77
2019-02-02T06:00:55.572Z,-77
2019-02-02T06:03:27.790Z,-78
2019-02-02T06:05:58.918Z,-77
2019-02-02T06:08:31.276Z,-77
2019-02-02T06:11:03.298Z,-77
2019-02-02T06:13:35.350Z,-77
2019-02-02T06:16:07.769Z,-77
2019-02-02T06:18:38.655Z,-78
2019-02-02T06:21:10.839Z,-77
2019-02-02T06:23:43.309Z,-77
2019-02-02T06:26:15.795Z,-78
2019-02-02T06:28:47.902Z,-78
2019-02-02T06:31:20.311Z,-78
2019-02-02T06:33:52.310Z,-80
2019-02-02T06:36:24.323Z,-78
2019-02-02T06:38:56.661Z,-77
2019-02-02T06:41:28.951Z,-76
2019-02-02T06:44:01.313Z,-78
2019-02-02T06:46:43.217Z,-80
2019-02-02T06:49:07.593Z,-78
2019-02-02T06:51:39.807Z,-77
2019-02-02T06:54:11.813Z,-77
2019-02-02T06:56:43.842Z,-77
2019-02-02T06:59:15.846Z,-77
2019-02-02T07:01:47.855Z,-77
2019-02-02T07:04:20.015Z,-77
2019-02-02T07:06:52.310Z,-77
2019-02-02T07:09:24.834Z,-77
2019-02-02T07:11:56.836Z,-78
2019-02-02T07:14:28.838Z,-77
2019-02-02T07:17:00.801Z,-78
2019-02-02T07:19:32.790Z,-78
2019-02-02T07:22:04.778Z,-77
2019-02-02T07:24:35.670Z,-77
2019-02-02T07:27:06.678Z,-77
2019-02-02T07:29:38.952Z,-77
2019-02-02T07:32:10.818Z,-77
2019-02-02T07:34:42.808Z,-77
2019-02-02T07:37:16.899Z,-77
2019-02-02T07:39:49.304Z,-77
2019-02-02T07:42:21.797Z,-77
2019-02-02T07:44:52.693Z,-77
2019-02-02T07:47:23.651Z,-77
2019-02-02T07:49:55.837Z,-76
2019-02-02T07:52:27.789Z,-77
2019-02-02T07:54:58.675Z,-77
2019-02-02T07:57:29.676Z,-77
2019-02-02T08:00:00.660Z,-77
2019-02-02T08:02:32.772Z,-77
2019-02-02T08:05:04.840Z,-77
2019-02-02T08:07:36.798Z,-77
2019-02-02T08:10:11.384Z,-77
2019-02-02T08:12:43.819Z,-76
2019-02-02T08:15:21.125Z,-77
2019-02-02T08:17:53.302Z,-77
2019-02-02T08:20:25.316Z,-76
2019-02-02T08:22:57.808Z,-76
2019-02-02T08:25:28.670Z,-75
2019-02-02T08:27:59.647Z,-76
2019-02-02T08:30:35.828Z,-76
2019-02-02T08:33:08.866Z,-76
2019-02-02T08:35:41.332Z,-75
2019-02-02T08:38:13.788Z,-76
2019-02-02T08:40:44.684Z,-77
2019-02-02T08:43:15.884Z,-77
2019-02-02T08:45:47.829Z,-76
2019-02-02T08:48:20.313Z,-77
2019-02-02T08:50:52.783Z,-75
2019-02-02T08:53:24.795Z,-75
2019-02-02T08:55:56.843Z,-75
2019-02-02T08:58:28.786Z,-76
2019-02-02T09:01:04.229Z,-76
2019-02-02T09:03:33.878Z,-75
2019-02-02T09:06:05.803Z,-76
2019-02-02T09:08:37.812Z,-75
2019-02-02T09:11:10.309Z,-75
2019-02-02T09:13:42.276Z,-75
2019-02-02T09:16:14.318Z,-76
2019-02-02T09:18:46.415Z,-76
2019-02-02T09:21:18.490Z,-76
2019-02-02T09:23:50.711Z,-75
2019-02-02T09:26:21.679Z,-76
2019-02-02T09:28:52.354Z,-76
2019-02-02T09:31:24.452Z,-76
2019-02-02T09:33:56.874Z,-76
2019-02-02T09:36:28.826Z,-76
2019-02-02T09:39:00.808Z,-76
2019-02-02T09:41:32.841Z,-76
2019-02-02T09:44:04.826Z,-75
2019-02-02T09:46:36.983Z,-76
2019-02-02T09:49:08.778Z,-76
2019-02-02T09:51:41.287Z,-75
2019-02-02T09:54:13.635Z,-75
2019-02-02T09:56:45.822Z,-76
2019-02-02T09:59:17.827Z,-77
2019-02-02T10:01:49.786Z,-76
2019-02-02T10:04:20.659Z,-76
2019-02-02T10:06:52.795Z,-76
2019-02-02T10:09:24.857Z,-75
2019-02-02T10:11:57.003Z,-76
2019-02-02T10:14:29.373Z,-76
2019-02-02T10:18:58.071Z,-67
2019-02-02T10:21:30.483Z,-69
2019-02-02T10:24:03.220Z,-69
2019-02-02T10:26:35.856Z,-69
2019-02-02T10:29:08.079Z,-69
2019-02-02T10:31:43.806Z,-69
2019-02-02T10:34:15.841Z,-69
2019-02-02T10:36:47.907Z,-69
2019-02-02T10:39:19.838Z,-69
2019-02-02T10:41:52.320Z,-69
2019-02-02T10:44:24.643Z,-69
2019-02-02T10:46:55.879Z,-69
2019-02-02T10:49:28.355Z,-69
2019-02-02T10:52:00.852Z,-69
2019-02-02T10:54:33.677Z,-69
2019-02-02T10:57:05.883Z,-69
2019-02-02T10:59:38.035Z,-69
2019-02-02T11:02:10.309Z,-69
2019-02-02T11:04:42.842Z,-69
2019-02-02T11:07:15.125Z,-69
2019-02-02T11:09:47.863Z,-69
2019-02-02T11:12:20.136Z,-69
2019-02-02T11:14:52.997Z,-69
2019-02-02T11:17:25.829Z,-69
2019-02-02T11:19:58.498Z,-69
2019-02-02T11:22:30.494Z,-69
2019-02-02T11:25:02.300Z,-69
2019-02-02T11:27:35.067Z,-69
2019-02-02T11:30:09.856Z,-69
2019-02-02T11:32:41.897Z,-69
2019-02-02T11:35:15.907Z,-69
2019-02-02T11:37:47.765Z,-70
2019-02-02T11:40:24.936Z,-69
2019-02-02T11:42:57.054Z,-69
2019-02-02T11:45:28.741Z,-69
2019-02-02T11:48:01.306Z,-67
2019-02-02T11:50:33.068Z,-69
2019-02-02T11:53:05.303Z,-70
2019-02-02T11:55:36.902Z,-70
2019-02-02T11:58:23.343Z,-70
2019-02-02T12:00:55.454Z,-72
2019-02-02T12:03:27.303Z,-70
2019-02-02T12:05:58.910Z,-67
2019-02-02T12:08:30.776Z,-69
2019-02-02T12:11:01.607Z,-68
2019-02-02T12:13:35.934Z,-70
2019-02-02T12:16:07.749Z,-69
2019-02-02T12:18:39.462Z,-70
2019-02-02T12:21:11.839Z,-70
2019-02-02T12:23:43.790Z,-70
2019-02-02T12:26:16.042Z,-68
2019-02-02T12:28:47.799Z,-69
2019-02-02T12:31:19.728Z,-70
2019-02-02T12:34:02.604Z,-68
2019-02-02T12:36:25.862Z,-70
2019-02-02T12:38:57.870Z,-69
2019-02-02T12:41:29.749Z,-70
2019-02-02T12:44:00.516Z,-70
2019-02-02T12:46:33.287Z,-69
2019-02-02T12:49:05.302Z,-68
2019-02-02T12:51:37.454Z,-68
2019-02-02T12:54:09.309Z,-69
2019-02-02T12:56:40.859Z,-70
2019-02-02T12:59:12.755Z,-68
2019-02-02T13:01:43.503Z,-68
2019-02-02T13:04:15.296Z,-68
2019-02-02T13:06:47.306Z,-70
2019-02-02T13:09:18.859Z,-68
2019-02-02T13:11:50.376Z,-68
2019-02-02T13:14:22.306Z,-69
2019-02-02T13:16:53.859Z,-69
2019-02-02T13:19:25.725Z,-69
2019-02-02T13:21:56.466Z,-69
2019-02-02T13:24:28.434Z,-69
2019-02-02T13:27:00.630Z,-69
2019-02-02T13:29:32.406Z,-70
2019-02-02T13:32:04.066Z,-69
2019-02-02T13:34:35.757Z,-68
2019-02-02T13:37:06.499Z,-69
2019-02-02T13:39:40.422Z,-69
2019-02-02T13:42:16.137Z,-69
2019-02-02T13:44:48.343Z,-69
2019-02-02T13:47:20.393Z,-69
2019-02-02T13:49:52.311Z,-69
2019-02-02T13:52:24.325Z,-69
2019-02-02T13:54:56.268Z,-70
2019-02-02T13:57:27.849Z,-68
2019-02-02T13:59:59.771Z,-67
2019-02-02T14:02:31.603Z,-69
2019-02-02T14:05:04.208Z,-69
2019-02-02T14:07:35.812Z,-68
2019-02-02T14:10:09.794Z,-69
2019-02-02T14:12:41.376Z,-69
2019-02-02T14:15:13.812Z,-69
2019-02-02T14:17:45.880Z,-70
2019-02-02T14:20:17.793Z,-69
2019-02-02T14:22:48.452Z,-70
2019-02-02T14:25:20.307Z,-69
2019-02-02T14:27:51.858Z,-70
2019-02-02T14:30:26.306Z,-69
2019-02-02T14:32:58.751Z,-70
2019-02-02T14:35:30.109Z,-70
2019-02-02T14:38:01.759Z,-69
2019-02-02T14:40:32.644Z,-69
2019-02-02T14:43:04.386Z,-69
2019-02-02T14:45:36.067Z,-69
2019-02-02T14:48:07.745Z,-69
2019-02-02T14:50:38.511Z,-69
2019-02-02T14:53:10.301Z,-69
2019-02-02T14:55:41.890Z,-69
2019-02-02T14:58:13.836Z,-69
2019-02-02T15:00:45.755Z,-69
2019-02-02T15:03:25.626Z,-70
2019-02-02T15:05:50.771Z,-69
2019-02-02T15:08:22.373Z,-70
2019-02-02T15:10:54.068Z,-69
2019-02-02T15:13:25.741Z,-69
2019-02-02T15:15:56.651Z,-70
2019-02-02T15:18:28.345Z,-67
2019-02-02T15:21:00.401Z,-68
2019-02-02T15:23:32.006Z,-70
2019-02-02T15:26:04.736Z,-69
2019-02-02T15:28:35.867Z,-69
2019-02-02T15:31:07.691Z,-69
2019-02-02T15:33:38.668Z,-69
2019-02-02T15:36:09.505Z,-69
2019-02-02T15:38:41.816Z,-71
2019-02-02T15:41:13.618Z,-72
2019-02-02T15:43:45.418Z,-72
2019-02-02T15:46:17.064Z,-71
2019-02-02T15:48:48.749Z,-71
2019-02-02T15:51:19.474Z,-70
2019-02-02T15:53:51.314Z,-70
2019-02-02T15:56:23.063Z,-71
2019-02-02T15:58:57.770Z,-71
2019-02-02T16:01:28.485Z,-71
2019-02-02T16:04:00.302Z,-71
2019-02-02T16:06:32.301Z,-71
2019-02-02T16:09:05.370Z,-71
2019-02-02T16:11:37.308Z,-70
2019-02-02T16:14:09.501Z,-70
2019-02-02T16:16:41.260Z,-70
2019-02-02T16:19:13.422Z,-70
2019-02-02T16:21:45.305Z,-70
2019-02-02T16:24:17.046Z,-70
2019-02-02T16:26:48.823Z,-70
2019-02-02T16:29:20.754Z,-70
2019-02-02T16:31:57.781Z,-70
2019-02-02T16:34:28.753Z,-70
2019-02-02T16:36:59.477Z,-71
2019-02-02T16:39:31.307Z,-70
2019-02-02T16:42:03.307Z,-70
2019-02-02T16:44:34.833Z,-71
2019-02-02T16:47:06.859Z,-70
2019-02-02T16:49:38.766Z,-70
2019-02-02T16:52:09.475Z,-69
2019-02-02T16:54:41.361Z,-70
2019-02-02T16:57:13.024Z,-70
2019-02-02T16:59:44.778Z,-71
2019-02-02T17:02:15.517Z,-71
2019-02-02T17:04:47.584Z,-71
2019-02-02T17:07:18.649Z,-70
2019-02-02T17:09:50.732Z,-71
2019-02-02T17:12:21.475Z,-71
2019-02-02T17:14:55.700Z,-71
2019-02-02T17:17:26.805Z,-71
2019-02-02T17:19:58.571Z,-70
2019-02-02T17:22:30.403Z,-71
2019-02-02T17:25:02.035Z,-73
2019-02-02T17:27:33.822Z,-70
2019-02-02T17:30:07.376Z,-70
2019-02-02T17:32:39.077Z,-74
2019-02-02T17:35:11.913Z,-71
2019-02-02T17:37:43.410Z,-70
2019-02-02T17:40:19.993Z,-70
2019-02-02T17:42:51.860Z,-70
2019-02-02T17:45:24.102Z,-70
2019-02-02T17:47:57.003Z,-70
2019-02-02T17:50:29.891Z,-71
2019-02-02T17:53:02.490Z,-70
2019-02-02T17:55:35.514Z,-70
2019-02-02T17:58:07.829Z,-69
2019-02-02T18:00:54.757Z,-70
2019-02-02T18:03:27.327Z,-70
2019-02-02T18:05:59.816Z,-70
2019-02-02T18:08:31.817Z,-69
2019-02-02T18:11:03.867Z,-69
2019-02-02T18:13:35.993Z,-69
2019-02-02T18:16:07.916Z,-69
2019-02-02T18:18:39.857Z,-69
2019-02-02T18:21:11.840Z,-69
2019-02-02T18:23:43.813Z,-69
2019-02-02T18:26:15.810Z,-69
2019-02-02T18:28:47.878Z,-69
2019-02-02T18:31:19.851Z,-69
2019-02-02T18:33:51.825Z,-69
2019-02-02T18:36:23.844Z,-69
2019-02-02T18:38:55.884Z,-69
2019-02-02T18:41:27.819Z,-69
2019-02-02T18:43:59.809Z,-69
2019-02-02T18:46:31.877Z,-69
2019-02-02T18:49:03.864Z,-69
2019-02-02T18:51:35.869Z,-69
2019-02-02T18:54:08.331Z,-69
2019-02-02T18:56:40.871Z,-69
2019-02-02T18:59:12.819Z,-68
2019-02-02T19:01:44.860Z,-69
2019-02-02T19:04:16.852Z,-69
2019-02-02T19:06:49.067Z,-70
2019-02-02T19:09:21.100Z,-69
2019-02-02T19:11:53.323Z,-70
2019-02-02T19:14:25.876Z,-70
2019-02-02T19:17:01.210Z,-70
2019-02-02T19:19:30.725Z,-70
2019-02-02T19:22:01.739Z,-70
2019-02-02T19:24:33.911Z,-69
2019-02-02T19:27:05.798Z,-70
2019-02-02T19:29:37.884Z,-69
2019-02-02T19:32:10.809Z,-70
2019-02-02T19:34:43.388Z,-70
2019-02-02T19:37:15.993Z,-69
2019-02-02T19:39:48.330Z,-69
2019-02-02T19:42:21.347Z,-69
2019-02-02T19:44:53.871Z,-69
2019-02-02T19:47:26.485Z,-70
2019-02-02T19:49:58.910Z,-71
2019-02-02T19:52:31.094Z,-69
2019-02-02T19:55:14.417Z,-68
2019-02-02T19:57:37.277Z,-69
2019-02-02T20:00:21.651Z,-69
2019-02-02T20:02:54.285Z,-69
2019-02-02T20:05:29.035Z,-69
2019-02-02T20:08:00.668Z,-69
2019-02-02T20:10:32.896Z,-69
2019-02-02T20:13:05.321Z,-70
2019-02-02T20:15:37.833Z,-70
2019-02-02T20:18:10.697Z,-70
2019-02-02T20:20:42.912Z,-70
2019-02-02T20:23:15.893Z,-71
2019-02-02T20:25:49.329Z,-70
2019-02-02T20:28:22.084Z,-69
2019-02-02T20:30:54.990Z,-70
2019-02-02T20:33:28.096Z,-70
2019-02-02T20:36:01.323Z,-70
2019-02-02T20:38:33.903Z,-70
2019-02-02T20:41:06.796Z,-70
2019-02-02T20:43:39.468Z,-70
2019-02-02T20:46:12.028Z,-70
2019-02-02T20:48:44.724Z,-70
2019-02-02T20:51:17.683Z,-70
2019-02-02T20:53:49.276Z,-70
2019-02-02T20:56:23.917Z,-70
2019-02-02T20:58:56.867Z,-70
2019-02-02T21:01:29.339Z,-70
2019-02-02T21:04:02.097Z,-70
2019-02-02T21:06:34.923Z,-70
2019-02-02T21:09:09.289Z,-70
2019-02-02T21:11:42.056Z,-70
2019-02-02T21:14:14.928Z,-70
2019-02-02T21:16:47.911Z,-70
2019-02-02T21:19:20.874Z,-70
2019-02-02T21:21:53.511Z,-70
2019-02-02T21:24:27.239Z,-70
2019-02-02T21:27:00.071Z,-70
2019-02-02T21:29:32.861Z,-70
2019-02-02T21:32:05.332Z,-70
2019-02-02T21:34:38.042Z,-70
2019-02-02T21:37:10.940Z,-70
2019-02-02T21:39:43.880Z,-70
2019-02-02T21:42:17.099Z,-70
2019-02-02T21:44:49.863Z,-70
2019-02-02T21:47:22.409Z,-70
2019-02-02T21:49:55.039Z,-70
2019-02-02T21:52:28.318Z,-70
2019-02-02T21:55:01.094Z,-70
2019-02-02T21:57:34.028Z,-70
2019-02-02T22:00:10.849Z,-70
2019-02-02T22:02:44.328Z,-70
2019-02-02T22:05:17.642Z,-70
2019-02-02T22:07:50.319Z,-70
2019-02-02T22:10:23.102Z,-70
2019-02-02T22:12:56.026Z,-70
2019-02-02T22:15:28.996Z,-70
2019-02-02T22:18:02.340Z,-70
2019-02-02T22:20:35.396Z,-70
2019-02-02T22:23:08.042Z,-70
2019-02-02T22:25:40.907Z,-70
2019-02-02T22:28:13.896Z,-71
2019-02-02T22:30:46.900Z,-71
2019-02-02T22:33:19.484Z,-71
2019-02-02T22:35:52.095Z,-71
2019-02-02T22:38:24.926Z,-71
2019-02-02T22:40:58.100Z,-71
2019-02-02T22:43:31.077Z,-71
2019-02-02T22:46:04.094Z,-71
2019-02-02T22:48:37.039Z,-70
2019-02-02T22:51:09.913Z,-71
2019-02-02T22:53:42.883Z,-71
2019-02-02T22:56:16.027Z,-71
2019-02-02T22:58:49.396Z,-71
2019-02-02T23:01:43.939Z,-71
2019-02-02T23:05:00.021Z,-71
2019-02-02T23:08:45.009Z,-71
2019-02-02T23:12:24.451Z,-71
2019-02-02T23:16:07.006Z,-71
2019-02-02T23:18:40.101Z,-71
2019-02-02T23:21:13.098Z,-71
2019-02-02T23:23:46.041Z,-71
2019-02-02T23:26:18.934Z,-71
2019-02-02T23:28:51.986Z,-71
2019-02-02T23:31:25.070Z,-71
2019-02-02T23:33:57.883Z,-71
2019-02-02T23:36:30.572Z,-71
2019-02-02T23:39:03.140Z,-71
2019-02-02T23:41:34.746Z,-72
2019-02-02T23:44:05.517Z,-73
2019-02-02T23:46:37.314Z,-73
2019-02-02T23:49:09.316Z,-73
2019-02-02T23:51:40.881Z,-72
2019-02-02T23:54:13.070Z,-73
2019-02-02T23:56:44.752Z,-70
2019-02-02T23:59:15.715Z,-72
